Terminal Aerodrome Forecast
Issued by NWS

Home | Current Version | Previous Version | Text Only | Print | Product List | Glossary On
Versions: 1 2 3 4 5 6 7 8 9 10 11 12 13 14 15 16 17 18
000
FTUS43 KMPX 170304 AAA
TAFRWF
TAF AMD
KRWF 170304Z 1703/1724 VRB04KT 6SM BR SCT005 BKN010
      TEMPO 1703/1706 4SM BR OVC008
     FM170600 33006KT 3SM BR OVC005
     FM170800 32007KT 5SM BR BKN008
     FM171200 31007KT P6SM SCT010
     FM171800 25006KT P6SM SCT150=

USA.gov is the U.S. government's official web portal to all federal, state and local government web resources and services.